Terminal Aerodrome Forecast
Issued by NWS Cleveland, OH

Home | Current Version | Previous Version | Graphics & Text | Print | Product List | Glossary Off
Versions: 1 2 3 4 5 6 7 8 9 10 11 12 13 14 15 16 17 18 19 20 21 22

000
FTUS41 KCLE 020116 AAA
TAFMFD
TAF AMD
KMFD 020116Z 0201/0224 36007KT P6SM SCT025 OVC250
     FM021300 04010KT P6SM OVC025
     FM021600 03010KT P6SM BKN250=

USA.gov is the U.S. government's official web portal to all federal, state and local government web resources and services.